createdAt,value
2019-02-14T00:01:36.275Z,6.40
2019-02-14T00:04:03.082Z,7.07
2019-02-14T00:06:30.195Z,7.55
2019-02-14T00:08:57.129Z,9.10
2019-02-14T00:11:23.721Z,9.48
2019-02-14T00:13:50.716Z,9.33
2019-02-14T00:16:17.337Z,6.83
2019-02-14T00:18:44.316Z,10.30
2019-02-14T00:21:11.240Z,7.70
2019-02-14T00:23:37.844Z,9.57
2019-02-14T00:26:04.718Z,9.03
2019-02-14T00:28:31.596Z,9.08
2019-02-14T00:30:58.400Z,7.37
2019-02-14T00:33:24.995Z,6.60
2019-02-14T00:35:51.862Z,8.77
2019-02-14T00:38:19.857Z,7.92
2019-02-14T00:40:46.449Z,6.87
2019-02-14T00:43:13.043Z,6.73
2019-02-14T00:45:39.737Z,7.03
2019-02-14T00:48:06.613Z,8.10
2019-02-14T00:50:33.310Z,6.83
2019-02-14T00:52:59.921Z,7.40
2019-02-14T00:55:26.699Z,7.07
2019-02-14T00:57:53.695Z,7.47
2019-02-14T01:00:20.417Z,7.47
2019-02-14T01:02:47.118Z,8.93
2019-02-14T01:05:13.749Z,8.63
2019-02-14T01:07:41.440Z,9.25
2019-02-14T01:10:08.174Z,12.30
2019-02-14T01:12:35.000Z,14.20
2019-02-14T01:15:01.893Z,9.80
2019-02-14T01:17:28.498Z,7.67
2019-02-14T01:19:55.225Z,9.67
2019-02-14T01:22:21.860Z,8.90
2019-02-14T01:24:48.520Z,9.33
2019-02-14T01:27:15.434Z,8.73
2019-02-14T01:29:42.454Z,7.43
2019-02-14T01:32:09.041Z,6.20
2019-02-14T01:34:36.165Z,7.20
2019-02-14T01:37:02.821Z,6.70
2019-02-14T01:39:29.683Z,7.42
2019-02-14T01:41:56.345Z,7.60
2019-02-14T01:44:22.994Z,10.23
2019-02-14T01:46:49.610Z,5.47
2019-02-14T01:49:16.315Z,6.47
2019-02-14T01:51:43.252Z,7.77
2019-02-14T01:54:09.885Z,5.60
2019-02-14T01:56:36.667Z,7.30
2019-02-14T01:59:03.586Z,6.05
2019-02-14T02:01:30.212Z,5.77
2019-02-14T02:03:56.945Z,5.57
2019-02-14T02:06:23.759Z,6.03
2019-02-14T02:08:50.471Z,6.43
2019-02-14T02:11:17.245Z,5.08
2019-02-14T02:13:43.862Z,6.23
2019-02-14T02:16:10.545Z,9.47
2019-02-14T02:18:37.452Z,5.70
2019-02-14T02:21:04.103Z,5.63
2019-02-14T02:23:30.925Z,6.93
2019-02-14T02:25:57.868Z,6.77
2019-02-14T02:28:24.521Z,9.23
2019-02-14T02:30:51.144Z,5.93
2019-02-14T02:33:18.143Z,6.30
2019-02-14T02:35:44.755Z,7.33
2019-02-14T02:38:11.535Z,5.93
2019-02-14T02:40:38.437Z,4.65
2019-02-14T02:43:05.043Z,4.47
2019-02-14T02:45:32.139Z,5.27
2019-02-14T02:47:58.996Z,5.80
2019-02-14T02:50:26.116Z,7.27
2019-02-14T02:52:53.304Z,6.43
2019-02-14T02:55:20.169Z,7.60
2019-02-14T02:57:46.895Z,6.43
2019-02-14T03:00:15.329Z,6.94
2019-02-14T03:02:42.018Z,7.90
2019-02-14T03:05:08.921Z,6.95
2019-02-14T03:07:35.978Z,6.93
2019-02-14T03:10:02.658Z,5.70
2019-02-14T03:12:29.452Z,6.62
2019-02-14T03:14:56.342Z,5.63
2019-02-14T03:17:23.740Z,5.85
2019-02-14T03:19:50.655Z,6.27
2019-02-14T03:22:17.302Z,5.80
2019-02-14T03:24:45.744Z,6.66
2019-02-14T03:27:12.442Z,3.93
2019-02-14T03:29:39.430Z,3.60
2019-02-14T03:32:06.341Z,5.37
2019-02-14T03:34:33.111Z,6.50
2019-02-14T03:37:01.236Z,4.50
2019-02-14T03:39:27.940Z,9.23
2019-02-14T03:41:54.565Z,6.37
2019-02-14T03:44:21.876Z,6.55
2019-02-14T03:46:48.860Z,5.40
2019-02-14T03:49:15.998Z,5.77
2019-02-14T03:51:42.721Z,6.70
2019-02-14T03:54:09.659Z,3.90
2019-02-14T03:56:36.620Z,6.72
2019-02-14T03:59:03.288Z,4.90
2019-02-14T04:01:29.985Z,4.37
2019-02-14T04:03:56.819Z,4.50
2019-02-14T04:06:27.455Z,6.95
2019-02-14T04:08:52.175Z,5.03
2019-02-14T04:11:19.001Z,4.03
2019-02-14T04:13:46.367Z,6.65
2019-02-14T04:16:13.065Z,7.03
2019-02-14T04:18:39.809Z,5.90
2019-02-14T04:21:06.426Z,5.93
2019-02-14T04:23:33.239Z,5.17
2019-02-14T04:26:00.247Z,3.97
2019-02-14T04:28:27.699Z,8.13
2019-02-14T04:30:54.332Z,4.00
2019-02-14T04:33:21.206Z,10.77
2019-02-14T04:35:47.844Z,6.37
2019-02-14T04:38:14.497Z,6.30
2019-02-14T04:40:41.279Z,7.07
2019-02-14T04:45:53.779Z,5.93
2019-02-14T04:48:23.966Z,8.45
2019-02-14T04:50:50.816Z,9.58
2019-02-14T04:53:18.207Z,5.90
2019-02-14T04:55:46.079Z,6.73
2019-02-14T04:58:13.871Z,5.67
2019-02-14T05:00:40.601Z,6.97
2019-02-14T05:03:07.269Z,9.57
2019-02-14T05:05:34.060Z,7.90
2019-02-14T05:08:00.716Z,6.27
2019-02-14T05:10:27.577Z,5.22
2019-02-14T05:12:54.205Z,6.17
2019-02-14T05:15:20.824Z,7.28
2019-02-14T05:17:47.793Z,6.83
2019-02-14T05:20:14.368Z,8.30
2019-02-14T05:22:41.025Z,6.03
2019-02-14T05:25:07.939Z,10.00
2019-02-14T05:27:34.850Z,8.38
2019-02-14T05:30:01.504Z,9.13
2019-02-14T05:32:28.172Z,11.23
2019-02-14T05:34:55.083Z,10.40
2019-02-14T05:37:22.029Z,13.10
2019-02-14T05:39:49.326Z,11.63
2019-02-14T05:42:17.461Z,12.10
2019-02-14T05:44:44.298Z,9.20
2019-02-14T05:47:11.176Z,10.23
2019-02-14T05:49:38.123Z,12.03
2019-02-14T05:52:04.825Z,12.40
2019-02-14T05:54:31.497Z,10.40
2019-02-14T05:56:58.263Z,12.60
2019-02-14T05:59:25.324Z,14.07
2019-02-14T06:01:52.008Z,9.95
2019-02-14T06:04:18.710Z,13.87
2019-02-14T06:06:45.773Z,9.90
2019-02-14T06:09:12.410Z,7.00
2019-02-14T06:11:39.153Z,6.90
2019-02-14T06:14:05.729Z,6.43
2019-02-14T06:16:32.485Z,7.43
2019-02-14T06:19:00.221Z,5.33
2019-02-14T06:21:27.059Z,7.37
2019-02-14T06:23:53.692Z,6.70
2019-02-14T06:26:20.753Z,7.22
2019-02-14T06:28:47.415Z,10.83
2019-02-14T06:31:14.115Z,7.08
2019-02-14T06:33:40.874Z,8.73
2019-02-14T06:36:07.465Z,10.70
2019-02-14T06:38:34.075Z,18.45
2019-02-14T06:41:01.083Z,9.03
2019-02-14T06:43:31.356Z,7.97
2019-02-14T06:46:05.888Z,11.93
2019-02-14T06:48:37.055Z,18.33
2019-02-14T06:51:04.232Z,13.17
2019-02-14T06:53:31.767Z,14.03
2019-02-14T06:56:02.876Z,15.60
2019-02-14T06:58:26.930Z,10.60
2019-02-14T07:00:53.639Z,10.73
2019-02-14T07:03:20.341Z,13.10
2019-02-14T07:05:46.969Z,13.47
2019-02-14T07:08:13.562Z,16.30
2019-02-14T07:10:40.396Z,12.37
2019-02-14T07:13:07.086Z,13.60
2019-02-14T07:15:33.752Z,15.47
2019-02-14T07:18:00.903Z,9.80
2019-02-14T07:20:27.575Z,17.27
2019-02-14T07:22:54.514Z,12.55
2019-02-14T07:25:21.140Z,14.60
2019-02-14T07:27:47.774Z,14.50
2019-02-14T07:30:14.863Z,9.73
2019-02-14T07:32:41.707Z,13.83
2019-02-14T07:35:08.639Z,12.67
2019-02-14T07:37:35.590Z,9.46
2019-02-14T07:40:02.210Z,12.03
2019-02-14T07:42:28.858Z,14.13
2019-02-14T07:44:55.798Z,11.47
2019-02-14T07:47:22.779Z,10.20
2019-02-14T07:49:49.462Z,12.57
2019-02-14T07:52:16.496Z,10.57
2019-02-14T07:54:43.441Z,18.33
2019-02-14T07:59:42.057Z,9.40
2019-02-14T08:02:09.268Z,13.28
2019-02-14T08:04:36.103Z,13.60
2019-02-14T08:07:03.441Z,15.50
2019-02-14T08:09:31.627Z,14.63
2019-02-14T08:11:58.309Z,14.60
2019-02-14T08:14:25.384Z,9.83
2019-02-14T08:17:05.984Z,12.07
2019-02-14T08:19:32.720Z,10.97
2019-02-14T08:21:59.545Z,12.17
2019-02-14T08:24:26.393Z,10.17
2019-02-14T08:26:53.418Z,11.63
2019-02-14T08:29:20.396Z,12.77
2019-02-14T08:31:47.736Z,13.30
2019-02-14T08:34:14.521Z,8.97
2019-02-14T08:36:41.581Z,11.87
2019-02-14T08:39:08.708Z,7.30
2019-02-14T08:41:35.902Z,7.00
2019-02-14T08:44:03.002Z,13.13
2019-02-14T08:46:29.684Z,8.47
2019-02-14T08:48:56.828Z,10.13
2019-02-14T08:51:23.669Z,10.30
2019-02-14T08:53:50.658Z,7.63
2019-02-14T08:56:17.934Z,5.85
2019-02-14T08:58:44.849Z,8.03
2019-02-14T09:01:11.839Z,8.33
2019-02-14T09:03:38.804Z,10.60
2019-02-14T09:06:05.830Z,6.00
2019-02-14T09:08:32.866Z,7.37
2019-02-14T09:10:59.853Z,5.65
2019-02-14T09:13:26.519Z,9.50
2019-02-14T09:15:53.166Z,9.03
2019-02-14T09:18:20.131Z,11.30
2019-02-14T09:20:47.154Z,4.87
2019-02-14T09:23:14.773Z,6.57
2019-02-14T09:25:41.822Z,7.50
2019-02-14T09:28:08.461Z,2.80
2019-02-14T09:30:35.442Z,6.83
2019-02-14T09:33:02.691Z,8.57
2019-02-14T09:35:29.375Z,5.37
2019-02-14T09:38:03.098Z,5.37
2019-02-14T09:40:24.705Z,4.73
2019-02-14T09:42:51.598Z,5.20
2019-02-14T09:45:18.448Z,4.90
2019-02-14T09:47:45.136Z,7.15
2019-02-14T09:50:11.817Z,6.17
2019-02-14T09:52:38.753Z,5.90
2019-02-14T09:55:05.609Z,5.13
2019-02-14T09:57:32.880Z,3.40
2019-02-14T09:59:59.707Z,4.13
2019-02-14T10:04:59.087Z,3.23
2019-02-14T10:07:25.834Z,2.80
2019-02-14T10:09:52.889Z,8.60
2019-02-14T10:12:19.910Z,3.97
2019-02-14T10:14:46.899Z,5.33
2019-02-14T10:17:21.841Z,5.45
2019-02-14T10:19:41.987Z,6.23
2019-02-14T10:22:08.667Z,4.53
2019-02-14T10:24:35.361Z,7.03
2019-02-14T10:27:03.452Z,2.25
2019-02-14T10:29:30.273Z,8.07
2019-02-14T10:31:57.182Z,3.13
2019-02-14T10:34:24.069Z,4.73
2019-02-14T10:36:50.762Z,4.43
2019-02-14T10:39:17.426Z,5.55
2019-02-14T10:41:44.427Z,3.80
2019-02-14T10:44:11.436Z,4.47
2019-02-14T10:46:38.352Z,4.77
2019-02-14T10:49:05.199Z,8.27
2019-02-14T10:51:33.550Z,3.48
2019-02-14T10:54:00.400Z,3.90
2019-02-14T10:56:27.388Z,3.63
2019-02-14T10:58:54.313Z,5.70
2019-02-14T11:01:21.507Z,2.37
2019-02-14T11:03:48.468Z,4.17
2019-02-14T11:06:15.683Z,4.40
2019-02-14T11:08:42.586Z,2.37
2019-02-14T11:11:09.740Z,5.42
2019-02-14T11:13:36.540Z,3.43
2019-02-14T11:16:03.907Z,3.37
2019-02-14T11:18:30.786Z,5.50
2019-02-14T11:20:57.623Z,5.93
2019-02-14T11:23:24.293Z,3.87
2019-02-14T11:25:50.903Z,6.43
2019-02-14T11:28:17.747Z,6.13
2019-02-14T11:30:44.407Z,6.63
2019-02-14T11:33:11.366Z,8.53
2019-02-14T11:35:38.112Z,4.42
2019-02-14T11:38:05.354Z,8.93
2019-02-14T11:40:31.967Z,6.03
2019-02-14T11:42:58.791Z,7.73
2019-02-14T11:45:25.479Z,7.37
2019-02-14T11:47:52.287Z,5.53
2019-02-14T11:50:19.063Z,2.70
2019-02-14T11:52:45.695Z,8.67
2019-02-14T11:55:12.289Z,3.07
2019-02-14T11:57:39.247Z,5.57
2019-02-14T12:00:06.464Z,4.10
2019-02-14T12:02:34.551Z,3.47
2019-02-14T12:05:01.288Z,3.83
2019-02-14T12:07:27.920Z,5.70
2019-02-14T12:09:54.609Z,3.07
2019-02-14T12:12:22.965Z,3.27
2019-02-14T12:14:50.014Z,2.13
2019-02-14T12:17:16.800Z,3.08
2019-02-14T12:19:43.705Z,3.43
2019-02-14T12:22:11.305Z,2.15
2019-02-14T12:24:38.232Z,3.03
2019-02-14T12:27:05.013Z,5.43
2019-02-14T12:29:31.739Z,3.80
2019-02-14T12:31:58.716Z,4.53
2019-02-14T12:34:25.645Z,2.13
2019-02-14T12:36:52.260Z,3.67
2019-02-14T12:39:19.029Z,4.87
2019-02-14T12:41:45.917Z,4.03
2019-02-14T12:44:12.618Z,3.63
2019-02-14T12:46:39.270Z,5.42
2019-02-14T12:49:06.056Z,2.97
2019-02-14T12:51:32.699Z,2.73
2019-02-14T12:53:59.319Z,4.87
2019-02-14T12:56:26.282Z,2.43
2019-02-14T12:58:53.539Z,4.15
2019-02-14T13:01:21.910Z,3.67
2019-02-14T13:03:48.994Z,3.17
2019-02-14T13:06:15.661Z,7.20
2019-02-14T13:08:42.305Z,3.50
2019-02-14T13:11:09.481Z,4.78
2019-02-14T13:13:36.653Z,4.57
2019-02-14T13:16:03.483Z,2.80
2019-02-14T13:18:30.453Z,4.20
2019-02-14T13:20:57.107Z,9.00
2019-02-14T13:23:23.804Z,6.85
2019-02-14T13:25:50.757Z,3.73
2019-02-14T13:28:17.781Z,2.42
2019-02-14T13:30:44.715Z,2.73
2019-02-14T13:33:11.585Z,2.20
2019-02-14T13:35:38.282Z,6.67
2019-02-14T13:38:06.052Z,4.22
2019-02-14T13:40:32.687Z,3.80
2019-02-14T13:42:59.747Z,2.50
2019-02-14T13:45:26.775Z,3.43
2019-02-14T13:47:54.062Z,4.83
2019-02-14T13:50:21.240Z,3.50
2019-02-14T13:52:48.077Z,5.20
2019-02-14T13:55:15.087Z,2.73
2019-02-14T13:57:42.163Z,6.75
2019-02-14T14:00:09.509Z,5.40
2019-02-14T14:02:36.326Z,3.80
2019-02-14T14:05:03.100Z,2.53
2019-02-14T14:07:39.925Z,2.87
2019-02-14T14:09:58.600Z,2.80
2019-02-14T14:12:25.560Z,2.87
2019-02-14T14:14:52.303Z,3.30
2019-02-14T14:17:19.271Z,2.90
2019-02-14T14:19:46.630Z,5.00
2019-02-14T14:22:13.595Z,3.13
2019-02-14T14:24:40.480Z,5.33
2019-02-14T14:27:07.665Z,7.27
2019-02-14T14:29:34.255Z,2.90
2019-02-14T14:32:01.136Z,3.73
2019-02-14T14:34:28.357Z,6.20
2019-02-14T14:36:55.050Z,4.65
2019-02-14T14:39:21.962Z,3.00
2019-02-14T14:41:48.854Z,3.25
2019-02-14T14:44:15.969Z,2.83
2019-02-14T14:46:42.695Z,3.13
2019-02-14T14:49:11.799Z,3.20
2019-02-14T14:51:38.783Z,3.47
2019-02-14T14:54:06.886Z,4.15
2019-02-14T14:56:33.857Z,4.80
2019-02-14T14:59:00.655Z,7.40
2019-02-14T15:01:27.436Z,6.13
2019-02-14T15:03:54.785Z,5.03
2019-02-14T15:06:22.012Z,5.90
2019-02-14T15:08:48.791Z,5.90
2019-02-14T15:11:15.847Z,4.13
2019-02-14T15:13:43.591Z,3.90
2019-02-14T15:16:10.784Z,5.72
2019-02-14T15:18:37.510Z,3.73
2019-02-14T15:21:04.545Z,6.73
2019-02-14T15:23:32.195Z,3.13
2019-02-14T15:25:58.909Z,3.27
2019-02-14T15:28:26.478Z,4.55
2019-02-14T15:30:53.291Z,4.60
2019-02-14T15:33:21.483Z,5.03
2019-02-14T15:35:48.142Z,2.90
2019-02-14T15:38:15.027Z,4.40
2019-02-14T15:40:42.766Z,3.84
2019-02-14T15:43:09.690Z,4.63
2019-02-14T15:45:37.619Z,3.20
2019-02-14T15:48:04.402Z,8.67
2019-02-14T15:50:32.162Z,8.13
2019-02-14T15:52:59.301Z,6.70
2019-02-14T15:55:26.301Z,6.07
2019-02-14T15:57:53.601Z,4.17
2019-02-14T16:00:20.971Z,4.60
2019-02-14T16:02:50.130Z,3.00
2019-02-14T16:05:17.333Z,6.80
2019-02-14T16:07:45.583Z,8.18
2019-02-14T16:10:18.698Z,4.23
2019-02-14T16:12:43.269Z,8.67
2019-02-14T16:15:09.547Z,8.50
2019-02-14T16:17:37.950Z,7.04
2019-02-14T16:20:04.938Z,3.67
2019-02-14T16:22:31.769Z,9.63
2019-02-14T16:24:59.632Z,4.73
2019-02-14T16:27:26.853Z,6.80
2019-02-14T16:32:40.069Z,6.13
2019-02-14T16:35:08.419Z,6.67
2019-02-14T16:37:35.026Z,3.17
2019-02-14T16:40:02.141Z,8.67
2019-02-14T16:42:29.221Z,9.90
2019-02-14T16:44:58.753Z,5.05
2019-02-14T16:47:29.601Z,10.20
2019-02-14T16:49:58.440Z,6.30
2019-02-14T16:52:28.898Z,9.57
2019-02-14T16:54:55.938Z,8.77
2019-02-14T16:57:23.762Z,7.43
2019-02-14T16:59:52.323Z,7.97
2019-02-14T17:02:19.327Z,9.03
2019-02-14T17:04:46.448Z,8.45
2019-02-14T17:07:13.267Z,6.40
2019-02-14T17:09:39.893Z,7.77
2019-02-14T17:12:06.508Z,8.13
2019-02-14T17:14:33.330Z,15.40
2019-02-14T17:16:59.968Z,11.97
2019-02-14T17:19:26.737Z,8.13
2019-02-14T17:21:53.594Z,8.37
2019-02-14T17:24:20.497Z,10.97
2019-02-14T17:26:47.468Z,10.10
2019-02-14T17:29:15.197Z,9.60
2019-02-14T17:31:42.106Z,9.27
2019-02-14T17:34:09.030Z,16.20
2019-02-14T17:36:35.691Z,10.90
2019-02-14T17:39:02.343Z,13.40
2019-02-14T17:41:28.928Z,12.80
2019-02-14T17:43:57.729Z,13.77
2019-02-14T17:46:26.447Z,13.30
2019-02-14T17:48:57.556Z,12.78
2019-02-14T17:51:26.182Z,18.07
2019-02-14T17:53:53.097Z,19.75
2019-02-14T17:56:20.340Z,18.55
2019-02-14T17:58:49.275Z,15.03
2019-02-14T18:01:15.974Z,23.90
2019-02-14T18:03:43.184Z,22.20
2019-02-14T18:06:10.070Z,22.83
2019-02-14T18:08:37.054Z,21.33
2019-02-14T18:11:06.576Z,18.95
2019-02-14T18:13:33.166Z,16.53
2019-02-14T18:16:00.702Z,24.90
2019-02-14T18:18:29.754Z,20.30
2019-02-14T18:20:58.595Z,18.37
2019-02-14T18:23:25.732Z,16.62
2019-02-14T18:25:52.318Z,17.40
2019-02-14T18:28:21.277Z,18.00
2019-02-14T18:30:50.946Z,16.80
2019-02-14T18:33:21.278Z,20.90
2019-02-14T18:35:49.933Z,18.37
2019-02-14T18:38:16.580Z,17.63
2019-02-14T18:40:43.777Z,15.15
2019-02-14T18:45:58.441Z,12.23
2019-02-14T18:48:25.606Z,18.25
2019-02-14T18:50:55.846Z,16.23
2019-02-14T18:53:23.913Z,13.80
2019-02-14T18:55:53.206Z,13.13
2019-02-14T18:58:26.339Z,13.37
2019-02-14T19:00:50.587Z,17.47
2019-02-14T19:03:19.506Z,15.37
2019-02-14T19:05:46.910Z,14.50
2019-02-14T19:08:16.601Z,14.07
2019-02-14T19:10:45.640Z,14.53
2019-02-14T19:13:12.248Z,15.13
2019-02-14T19:15:44.526Z,16.55
2019-02-14T19:18:11.086Z,17.67
2019-02-14T19:20:41.488Z,18.37
2019-02-14T19:23:08.415Z,26.03
2019-02-14T19:25:35.123Z,18.37
2019-02-14T19:28:03.218Z,16.73
2019-02-14T19:30:32.895Z,24.77
2019-02-14T19:33:00.493Z,20.62
2019-02-14T19:35:31.374Z,18.73
2019-02-14T19:38:01.282Z,19.43
2019-02-14T19:43:19.220Z,19.97
2019-02-14T19:45:50.412Z,16.23
2019-02-14T19:48:18.280Z,18.83
2019-02-14T19:50:48.951Z,21.80
2019-02-14T19:53:18.269Z,24.15
2019-02-14T19:55:48.117Z,21.17
2019-02-14T19:58:17.476Z,23.43
2019-02-14T20:00:44.923Z,23.13
2019-02-14T20:03:11.663Z,20.37
2019-02-14T20:05:38.426Z,16.03
2019-02-14T20:08:05.686Z,20.50
2019-02-14T20:10:34.532Z,18.40
2019-02-14T20:13:01.155Z,19.23
2019-02-14T20:15:37.033Z,18.33
2019-02-14T20:18:01.643Z,18.53
2019-02-14T20:20:30.280Z,17.77
2019-02-14T20:22:59.871Z,19.47
2019-02-14T20:25:27.970Z,15.33
2019-02-14T20:27:56.073Z,20.43
2019-02-14T20:30:30.533Z,18.47
2019-02-14T20:33:04.442Z,20.37
2019-02-14T20:35:24.801Z,17.47
2019-02-14T20:37:52.779Z,17.47
2019-02-14T20:40:23.754Z,16.23
2019-02-14T20:42:51.677Z,22.20
2019-02-14T20:45:18.360Z,19.60
2019-02-14T20:47:46.913Z,18.42
2019-02-14T20:50:14.836Z,17.70
2019-02-14T20:52:44.254Z,16.83
2019-02-14T20:55:12.839Z,20.73
2019-02-14T20:57:43.964Z,21.20
2019-02-14T21:00:10.659Z,20.60
2019-02-14T21:02:37.811Z,22.00
2019-02-14T21:05:06.256Z,31.27
2019-02-14T21:07:36.863Z,24.97
2019-02-14T21:10:04.888Z,18.60
2019-02-14T21:12:33.066Z,16.53
2019-02-14T21:15:00.444Z,22.63
2019-02-14T21:17:31.950Z,23.73
2019-02-14T21:20:10.851Z,19.10
2019-02-14T21:22:39.445Z,16.97
2019-02-14T21:25:12.906Z,17.70
2019-02-14T21:27:39.249Z,14.53
2019-02-14T21:30:09.859Z,16.57
2019-02-14T21:32:40.708Z,17.27
2019-02-14T21:35:10.470Z,17.23
2019-02-14T21:37:39.947Z,17.17
2019-02-14T21:40:11.800Z,16.20
2019-02-14T21:42:41.538Z,15.65
2019-02-14T21:45:08.773Z,11.90
2019-02-14T21:47:38.554Z,11.83
2019-02-14T21:50:11.030Z,13.88
2019-02-14T21:52:40.933Z,12.37
2019-02-14T21:55:26.145Z,18.00
2019-02-14T21:57:42.551Z,14.60
2019-02-14T22:00:11.989Z,11.77
2019-02-14T22:02:38.614Z,18.63
2019-02-14T22:05:05.270Z,14.00
2019-02-14T22:07:34.890Z,11.73
2019-02-14T22:10:00.636Z,13.10
2019-02-14T22:12:39.927Z,15.00
2019-02-14T22:14:55.763Z,11.33
2019-02-14T22:17:22.862Z,14.73
2019-02-14T22:19:49.806Z,13.20
2019-02-14T22:22:16.480Z,14.43
2019-02-14T22:24:43.369Z,13.38
2019-02-14T22:27:09.963Z,15.77
2019-02-14T22:29:36.610Z,10.13
2019-02-14T22:32:03.564Z,15.75
2019-02-14T22:34:30.216Z,14.47
2019-02-14T22:36:57.385Z,17.30
2019-02-14T22:39:26.372Z,18.45
2019-02-14T22:41:53.096Z,21.00
2019-02-14T22:44:20.155Z,20.10
2019-02-14T22:46:46.902Z,20.70
2019-02-14T22:49:13.764Z,17.33
2019-02-14T22:51:40.731Z,22.70
2019-02-14T22:54:07.888Z,20.00
2019-02-14T22:56:34.858Z,20.07
2019-02-14T22:59:02.382Z,15.27
2019-02-14T23:01:29.017Z,15.37
2019-02-14T23:03:56.151Z,14.50
2019-02-14T23:06:22.943Z,17.17
2019-02-14T23:08:50.290Z,18.70
2019-02-14T23:11:16.934Z,19.13
2019-02-14T23:13:44.375Z,19.77
2019-02-14T23:16:11.047Z,18.90
2019-02-14T23:18:38.265Z,20.17
2019-02-14T23:21:05.949Z,18.67
2019-02-14T23:23:32.567Z,18.52
2019-02-14T23:25:59.341Z,16.47
2019-02-14T23:28:26.291Z,17.60
2019-02-14T23:30:53.187Z,15.43
2019-02-14T23:33:20.629Z,12.68
2019-02-14T23:35:47.280Z,13.63
2019-02-14T23:38:14.229Z,15.00
2019-02-14T23:40:41.227Z,17.35
2019-02-14T23:43:08.635Z,13.75
2019-02-14T23:45:35.500Z,10.33
2019-02-14T23:48:02.720Z,11.10
2019-02-14T23:50:29.663Z,12.47
2019-02-14T23:52:56.368Z,12.43
2019-02-14T23:55:23.054Z,12.93
2019-02-14T23:57:50.833Z,13.30
